createdAt,value
2022-09-10T00:01:19.450Z,23.30
2022-09-10T00:03:49.969Z,23.30
2022-09-10T00:06:18.937Z,23.30
2022-09-10T00:08:47.615Z,23.30
2022-09-10T00:11:15.945Z,23.30
2022-09-10T00:13:45.254Z,23.30
2022-09-10T00:16:16.132Z,23.30
2022-09-10T00:18:44.436Z,23.30
2022-09-10T00:21:16.265Z,23.30
2022-09-10T00:23:45.744Z,23.30
2022-09-10T00:26:16.802Z,23.30
2022-09-10T00:28:45.068Z,23.30
2022-09-10T00:31:14.279Z,23.20
2022-09-10T00:33:42.763Z,23.30
2022-09-10T00:36:21.556Z,23.20
2022-09-10T00:38:50.843Z,23.20
2022-09-10T00:41:20.563Z,23.20
2022-09-10T00:43:58.946Z,23.20
2022-09-10T00:46:32.139Z,23.20
2022-09-10T00:49:03.935Z,23.20
2022-09-10T00:51:36.013Z,23.20
2022-09-10T00:54:06.086Z,23.20
2022-09-10T00:56:34.706Z,23.20
2022-09-10T00:59:03.796Z,23.20
2022-09-10T01:01:33.506Z,23.20
2022-09-10T01:04:02.360Z,23.20
2022-09-10T01:06:30.307Z,23.20
2022-09-10T01:09:01.295Z,23.20
2022-09-10T01:11:42.515Z,23.20
2022-09-10T01:14:24.753Z,23.20
2022-09-10T01:17:04.449Z,23.20
2022-09-10T01:19:54.698Z,23.20
2022-09-10T01:22:32.467Z,23.10
2022-09-10T01:25:11.878Z,23.10
2022-09-10T01:27:44.922Z,23.10
2022-09-10T01:30:19.213Z,23.10
2022-09-10T01:32:58.050Z,23.10
2022-09-10T01:35:30.906Z,23.10
2022-09-10T01:38:04.591Z,23.10
2022-09-10T01:40:34.165Z,23.10
2022-09-10T01:43:05.776Z,23.10
2022-09-10T01:45:43.368Z,23.10
2022-09-10T01:48:34.985Z,23.10
2022-09-10T01:51:09.062Z,23.10
2022-09-10T01:53:52.258Z,23.10
2022-09-10T01:56:39.165Z,23.10
2022-09-10T01:59:18.917Z,23.10
2022-09-10T02:01:51.533Z,23.10
2022-09-10T02:04:22.130Z,23.00
2022-09-10T02:06:52.141Z,23.00
2022-09-10T02:09:20.948Z,23.00
2022-09-10T02:11:51.075Z,23.00
2022-09-10T02:14:21.624Z,23.00
2022-09-10T02:16:58.215Z,23.00
2022-09-10T02:19:26.571Z,23.00
2022-09-10T02:21:56.926Z,23.00
2022-09-10T02:24:24.854Z,23.00
2022-09-10T02:26:52.773Z,23.00
2022-09-10T02:29:22.643Z,23.00
2022-09-10T02:31:51.333Z,23.00
2022-09-10T02:34:20.223Z,23.00
2022-09-10T02:36:48.243Z,23.00
2022-09-10T02:39:16.225Z,23.00
2022-09-10T02:41:44.184Z,23.00
2022-09-10T02:44:12.017Z,23.00
2022-09-10T02:46:41.261Z,23.00
2022-09-10T02:49:09.914Z,23.00
2022-09-10T02:51:38.741Z,23.00
2022-09-10T02:54:06.722Z,23.00
2022-09-10T02:56:34.662Z,23.00
2022-09-10T02:59:02.538Z,23.00
2022-09-10T03:01:30.630Z,23.00
2022-09-10T03:04:00.314Z,23.00
2022-09-10T03:06:28.605Z,23.00
2022-09-10T03:08:57.551Z,22.90
2022-09-10T03:11:27.393Z,23.00
2022-09-10T03:13:56.065Z,23.00
2022-09-10T03:16:24.367Z,23.00
2022-09-10T03:18:52.764Z,23.00
2022-09-10T03:21:25.022Z,22.90
2022-09-10T03:23:54.775Z,23.00
2022-09-10T03:26:25.159Z,22.90
2022-09-10T03:28:53.411Z,22.90
2022-09-10T03:31:21.693Z,22.90
2022-09-10T03:33:50.590Z,22.90
2022-09-10T03:36:19.033Z,22.90
2022-09-10T03:38:48.265Z,22.90
2022-09-10T03:41:16.203Z,22.90
2022-09-10T03:43:44.076Z,22.90
2022-09-10T03:46:12.279Z,22.90
2022-09-10T03:48:40.551Z,22.90
2022-09-10T03:51:10.801Z,22.90
2022-09-10T03:53:39.553Z,22.90
2022-09-10T03:56:09.118Z,22.90
2022-09-10T03:58:37.333Z,22.90
2022-09-10T04:01:05.850Z,22.90
2022-09-10T04:03:34.066Z,22.90
2022-09-10T04:06:01.939Z,22.90
2022-09-10T04:08:29.849Z,22.90
2022-09-10T04:11:03.153Z,22.90
2022-09-10T04:13:32.688Z,22.90
2022-09-10T04:16:01.457Z,22.80
2022-09-10T04:18:32.058Z,22.90
2022-09-10T04:20:59.963Z,22.80
2022-09-10T04:23:29.377Z,22.80
2022-09-10T04:25:57.434Z,22.90
2022-09-10T04:28:25.408Z,22.90
2022-09-10T04:30:54.824Z,22.90
2022-09-10T04:33:22.669Z,22.80
2022-09-10T04:35:50.523Z,22.80
2022-09-10T04:38:18.410Z,22.80
2022-09-10T04:40:47.621Z,22.80
2022-09-10T04:43:15.823Z,22.80
2022-09-10T04:45:43.814Z,22.80
2022-09-10T04:48:13.070Z,22.80
2022-09-10T04:50:59.286Z,22.80
2022-09-10T04:53:31.162Z,22.80
2022-09-10T04:55:59.053Z,22.80
2022-09-10T04:58:26.902Z,22.80
2022-09-10T05:00:56.037Z,22.80
2022-09-10T05:03:25.777Z,22.80
2022-09-10T05:05:53.654Z,22.80
2022-09-10T05:08:21.531Z,22.70
2022-09-10T05:10:49.641Z,22.80
2022-09-10T05:13:17.671Z,22.70
2022-09-10T05:15:46.081Z,22.80
2022-09-10T05:18:14.103Z,22.70
2022-09-10T05:20:44.375Z,22.70
2022-09-10T05:23:12.917Z,22.70
2022-09-10T05:25:40.778Z,22.70
2022-09-10T05:28:09.421Z,22.80
2022-09-10T05:30:37.268Z,22.80
2022-09-10T05:33:05.258Z,22.70
2022-09-10T05:35:33.264Z,22.70
2022-09-10T05:38:02.786Z,22.70
2022-09-10T05:40:30.739Z,22.70
2022-09-10T05:43:00.124Z,22.80
2022-09-10T05:45:28.083Z,22.70
2022-09-10T05:47:57.147Z,22.70
2022-09-10T05:50:25.236Z,22.70
2022-09-10T05:52:53.263Z,22.70
2022-09-10T05:55:22.477Z,22.70
2022-09-10T05:57:50.554Z,22.70
2022-09-10T06:00:18.571Z,22.70
2022-09-10T06:02:47.988Z,22.70
2022-09-10T06:05:16.139Z,22.70
2022-09-10T06:07:44.125Z,22.70
2022-09-10T06:10:12.017Z,22.70
2022-09-10T06:12:45.925Z,22.70
2022-09-10T06:15:14.031Z,22.70
2022-09-10T06:17:41.948Z,22.70
2022-09-10T06:20:13.434Z,22.80
2022-09-10T06:22:41.515Z,22.70
2022-09-10T06:25:10.226Z,22.70
2022-09-10T06:27:38.224Z,22.70
2022-09-10T06:30:08.630Z,22.70
2022-09-10T06:32:36.543Z,22.70
2022-09-10T06:35:04.486Z,22.70
2022-09-10T06:37:35.091Z,22.70
2022-09-10T06:40:03.425Z,22.70
2022-09-10T06:42:32.184Z,22.70
2022-09-10T06:45:00.379Z,22.70
2022-09-10T06:50:17.524Z,22.70
2022-09-10T06:52:45.369Z,22.70
2022-09-10T06:55:13.249Z,22.60
2022-09-10T06:57:41.086Z,22.70
2022-09-10T07:00:10.121Z,22.60
2022-09-10T07:02:39.338Z,22.70
2022-09-10T07:05:07.865Z,22.60
2022-09-10T07:07:35.755Z,22.60
2022-09-10T07:10:03.690Z,22.60
2022-09-10T07:12:32.879Z,22.60
2022-09-10T07:15:00.764Z,22.60
2022-09-10T07:17:31.746Z,22.60
2022-09-10T07:20:01.368Z,22.60
2022-09-10T07:22:29.234Z,22.60
2022-09-10T07:24:57.119Z,22.60
2022-09-10T07:27:25.281Z,22.70
2022-09-10T07:29:53.206Z,22.70
2022-09-10T07:32:21.095Z,22.70
2022-09-10T07:34:49.107Z,22.70
2022-09-10T07:37:18.380Z,22.70
2022-09-10T07:39:46.792Z,22.70
2022-09-10T07:42:14.822Z,22.70
2022-09-10T07:44:42.710Z,22.60
2022-09-10T07:47:10.629Z,22.70
2022-09-10T07:49:38.870Z,22.70
2022-09-10T07:52:07.256Z,22.70
2022-09-10T07:54:36.486Z,22.60
2022-09-10T07:57:05.780Z,22.70
2022-09-10T07:59:33.725Z,22.70
2022-09-10T08:02:01.684Z,22.70
2022-09-10T08:04:36.510Z,22.70
2022-09-10T08:07:05.183Z,22.70
2022-09-10T08:09:33.318Z,22.70
2022-09-10T08:12:02.621Z,22.70
2022-09-10T08:14:31.607Z,22.70
2022-09-10T08:17:01.090Z,22.70
2022-09-10T08:19:29.764Z,22.70
2022-09-10T08:21:57.714Z,22.70
2022-09-10T08:24:25.640Z,22.60
2022-09-10T08:26:54.550Z,22.60
2022-09-10T08:29:23.769Z,22.60
2022-09-10T08:31:51.703Z,22.60
2022-09-10T08:34:20.046Z,22.60
2022-09-10T08:36:48.007Z,22.60
2022-09-10T08:39:15.991Z,22.60
2022-09-10T08:41:53.776Z,22.60
2022-09-10T08:44:33.782Z,22.60
2022-09-10T08:47:15.530Z,22.60
2022-09-10T08:49:48.259Z,22.50
2022-09-10T08:52:27.144Z,22.50
2022-09-10T08:55:02.859Z,22.50
2022-09-10T08:57:36.174Z,22.50
2022-09-10T09:00:08.702Z,22.50
2022-09-10T09:02:49.496Z,22.50
2022-09-10T09:05:19.806Z,22.50
2022-09-10T09:07:49.406Z,22.50
2022-09-10T09:10:28.293Z,22.50
2022-09-10T09:13:16.235Z,22.50
2022-09-10T09:15:51.971Z,22.50
2022-09-10T09:18:27.991Z,22.50
2022-09-10T09:20:59.148Z,22.50
2022-09-10T09:23:47.986Z,22.50
2022-09-10T09:26:30.519Z,22.40
2022-09-10T09:29:02.533Z,22.40
2022-09-10T09:31:35.855Z,22.40
2022-09-10T09:34:07.883Z,22.40
2022-09-10T09:36:42.401Z,22.40
2022-09-10T09:39:17.581Z,22.40
2022-09-10T09:41:52.801Z,22.40
2022-09-10T09:44:28.359Z,22.40
2022-09-10T09:46:57.596Z,22.40
2022-09-10T09:49:26.142Z,22.40
2022-09-10T09:51:54.856Z,22.40
2022-09-10T09:57:20.589Z,22.40
2022-09-10T09:59:50.294Z,22.40
2022-09-10T10:02:22.743Z,22.40
2022-09-10T10:05:07.053Z,22.40
2022-09-10T10:07:37.182Z,22.40
2022-09-10T10:10:08.354Z,22.50
2022-09-10T10:12:42.643Z,22.50
2022-09-10T10:15:41.085Z,22.50
2022-09-10T10:18:31.641Z,22.50
2022-09-10T10:21:14.270Z,22.60
2022-09-10T10:23:42.362Z,22.60
2022-09-10T10:26:27.602Z,22.60
2022-09-10T10:29:00.091Z,22.70
2022-09-10T10:31:42.641Z,22.70
2022-09-10T10:34:37.316Z,22.80
2022-09-10T10:37:10.356Z,22.80
2022-09-10T10:39:56.462Z,22.80
2022-09-10T10:42:31.115Z,22.80
2022-09-10T10:45:22.680Z,22.80
2022-09-10T10:47:57.128Z,22.80
2022-09-10T10:50:33.707Z,22.70
2022-09-10T10:53:28.452Z,22.70
2022-09-10T10:56:04.382Z,22.80
2022-09-10T10:58:53.923Z,22.80
2022-09-10T11:01:24.195Z,22.80
2022-09-10T11:04:00.956Z,22.80
2022-09-10T11:06:35.353Z,22.90
2022-09-10T11:09:07.835Z,22.90
2022-09-10T11:11:41.196Z,22.90
2022-09-10T11:14:22.628Z,22.90
2022-09-10T11:16:58.481Z,22.80
2022-09-10T11:19:35.598Z,22.80
2022-09-10T11:22:10.651Z,22.80
2022-09-10T11:24:43.958Z,22.80
2022-09-10T11:27:15.618Z,22.80
2022-09-10T11:29:48.506Z,22.80
2022-09-10T11:32:26.984Z,22.90
2022-09-10T11:35:04.811Z,22.90
2022-09-10T11:37:47.396Z,22.90
2022-09-10T11:40:24.329Z,22.90
2022-09-10T11:42:56.300Z,22.90
2022-09-10T11:45:33.109Z,22.90
2022-09-10T11:48:10.358Z,22.90
2022-09-10T11:50:47.405Z,22.90
2022-09-10T11:53:17.600Z,22.90
2022-09-10T11:56:09.570Z,22.90
2022-09-10T11:58:46.782Z,22.90
2022-09-10T12:01:22.985Z,22.90
2022-09-10T12:04:12.429Z,22.90
2022-09-10T12:06:52.197Z,22.90
2022-09-10T12:09:24.628Z,22.90
2022-09-10T12:12:01.072Z,22.90
2022-09-10T12:14:29.026Z,22.90
2022-09-10T12:17:00.599Z,22.90
2022-09-10T12:19:32.443Z,22.90
2022-09-10T12:22:05.046Z,22.90
2022-09-10T12:24:36.147Z,22.90
2022-09-10T12:27:06.618Z,22.90
2022-09-10T12:29:36.665Z,22.90
2022-09-10T12:32:37.651Z,22.90
2022-09-10T12:35:45.059Z,22.90
2022-09-10T12:38:48.744Z,22.90
2022-09-10T12:41:49.874Z,22.90
2022-09-10T12:44:30.904Z,22.90
2022-09-10T12:47:34.332Z,22.90
2022-09-10T12:50:06.561Z,22.90
2022-09-10T12:52:43.643Z,22.90
2022-09-10T12:55:22.330Z,22.90
2022-09-10T12:58:00.093Z,22.90
2022-09-10T13:00:31.666Z,22.90
2022-09-10T13:03:17.049Z,22.90
2022-09-10T13:05:50.414Z,22.90
2022-09-10T13:08:22.915Z,22.90
2022-09-10T13:11:13.403Z,22.90
2022-09-10T13:13:45.086Z,22.90
2022-09-10T13:16:17.164Z,22.80
2022-09-10T13:18:46.598Z,22.80
2022-09-10T13:21:52.257Z,22.90
2022-09-10T13:25:01.870Z,22.80
2022-09-10T13:27:39.868Z,22.80
2022-09-10T13:30:18.199Z,22.80
2022-09-10T13:32:52.160Z,22.80
2022-09-10T13:35:55.985Z,22.80
2022-09-10T13:38:49.615Z,22.80
2022-09-10T13:41:40.251Z,22.80
2022-09-10T13:44:21.453Z,22.80
2022-09-10T13:46:54.978Z,22.80
2022-09-10T13:49:31.557Z,22.80
2022-09-10T13:52:02.004Z,22.80
2022-09-10T13:54:34.948Z,22.80
2022-09-10T13:57:09.311Z,22.80
2022-09-10T13:59:40.794Z,22.80
2022-09-10T14:02:08.924Z,22.80
2022-09-10T14:04:40.869Z,22.80
2022-09-10T14:07:15.868Z,22.80
2022-09-10T14:09:46.432Z,22.80
2022-09-10T14:12:16.017Z,22.80
2022-09-10T14:14:48.797Z,23.00
2022-09-10T14:17:20.110Z,22.80
2022-09-10T14:19:51.995Z,22.80
2022-09-10T14:22:22.195Z,22.80
2022-09-10T14:24:53.503Z,22.80
2022-09-10T14:27:26.089Z,22.80
2022-09-10T14:29:57.223Z,22.80
2022-09-10T14:32:31.640Z,22.80
2022-09-10T14:35:03.635Z,22.80
2022-09-10T14:37:38.770Z,22.80
2022-09-10T14:40:17.675Z,22.80
2022-09-10T14:42:46.485Z,22.80
2022-09-10T14:45:42.435Z,22.80
2022-09-10T14:48:32.654Z,22.80
2022-09-10T14:51:19.262Z,22.70
2022-09-10T14:53:51.437Z,22.70
2022-09-10T14:56:24.347Z,22.70
2022-09-10T14:58:59.138Z,22.70
2022-09-10T15:01:28.922Z,22.70
2022-09-10T15:03:57.530Z,22.70
2022-09-10T15:06:26.962Z,22.70
2022-09-10T15:08:56.759Z,22.70
2022-09-10T15:11:28.635Z,22.70
2022-09-10T15:13:59.216Z,22.80
2022-09-10T15:16:29.598Z,22.70
2022-09-10T15:18:58.218Z,22.70
2022-09-10T15:21:26.448Z,22.70
2022-09-10T15:23:54.354Z,22.80
2022-09-10T15:26:22.247Z,22.70
2022-09-10T15:28:50.193Z,22.70
2022-09-10T15:31:18.555Z,22.70
2022-09-10T15:33:47.848Z,22.70
2022-09-10T15:36:15.934Z,22.70
2022-09-10T15:38:43.851Z,22.70
2022-09-10T15:41:13.327Z,22.70
2022-09-10T15:43:43.830Z,22.70
2022-09-10T15:46:12.421Z,22.70
2022-09-10T15:48:40.709Z,22.70
2022-09-10T15:51:14.891Z,22.70
2022-09-10T15:53:43.737Z,22.70
2022-09-10T15:56:12.878Z,22.70
2022-09-10T15:58:41.191Z,22.70
2022-09-10T16:01:12.460Z,22.70
2022-09-10T16:03:45.331Z,22.70
2022-09-10T16:06:15.533Z,22.70
2022-09-10T16:08:43.491Z,22.70
2022-09-10T16:11:12.721Z,22.70
2022-09-10T16:13:40.665Z,22.70
2022-09-10T16:16:13.365Z,22.70
2022-09-10T16:18:41.542Z,22.70
2022-09-10T16:21:11.573Z,22.70
2022-09-10T16:23:42.275Z,22.70
2022-09-10T16:26:14.794Z,22.70
2022-09-10T16:28:44.192Z,22.70
2022-09-10T16:31:17.370Z,22.70
2022-09-10T16:33:45.603Z,22.70
2022-09-10T16:36:15.113Z,22.70
2022-09-10T16:38:45.350Z,22.70
2022-09-10T16:41:14.678Z,22.70
2022-09-10T16:43:43.545Z,22.70
2022-09-10T16:46:13.169Z,22.70
2022-09-10T16:48:42.898Z,22.70
2022-09-10T16:51:13.577Z,22.70
2022-09-10T16:53:44.253Z,22.70
2022-09-10T16:56:15.792Z,22.70
2022-09-10T16:58:48.132Z,22.70
2022-09-10T17:01:16.945Z,22.70
2022-09-10T17:03:46.282Z,22.70
2022-09-10T17:06:15.742Z,22.70
2022-09-10T17:08:45.205Z,22.70
2022-09-10T17:11:15.234Z,22.70
2022-09-10T17:13:43.721Z,22.70
2022-09-10T17:16:17.406Z,22.70
2022-09-10T17:18:46.047Z,22.70
2022-09-10T17:21:14.440Z,22.70
2022-09-10T17:23:42.424Z,22.70
2022-09-10T17:26:11.106Z,22.70
2022-09-10T17:28:40.843Z,22.70
2022-09-10T17:31:08.897Z,22.70
2022-09-10T17:33:36.798Z,22.70
2022-09-10T17:36:05.543Z,22.70
2022-09-10T17:38:35.572Z,22.60
2022-09-10T17:41:05.361Z,22.60
2022-09-10T17:43:37.509Z,22.60
2022-09-10T17:46:09.265Z,22.60
2022-09-10T17:48:37.967Z,22.60
2022-09-10T17:51:07.038Z,22.60
2022-09-10T17:53:35.816Z,22.60
2022-09-10T17:56:04.871Z,22.60
2022-09-10T17:58:33.601Z,22.60
2022-09-10T18:01:03.429Z,22.60
2022-09-10T18:03:33.539Z,22.60
2022-09-10T18:06:05.085Z,22.60
2022-09-10T18:08:33.386Z,22.60
2022-09-10T18:11:05.698Z,22.60
2022-09-10T18:13:34.219Z,22.60
2022-09-10T18:16:07.213Z,22.60
2022-09-10T18:18:37.315Z,22.60
2022-09-10T18:21:15.827Z,22.60
2022-09-10T18:23:44.393Z,22.60
2022-09-10T18:26:17.742Z,22.60
2022-09-10T18:28:52.399Z,22.50
2022-09-10T18:31:20.545Z,22.60
2022-09-10T18:33:50.174Z,22.50
2022-09-10T18:36:19.847Z,22.50
2022-09-10T18:38:48.170Z,22.50
2022-09-10T18:41:21.542Z,22.50
2022-09-10T18:43:50.162Z,22.50
2022-09-10T18:46:18.983Z,22.50
2022-09-10T18:48:47.678Z,22.60
2022-09-10T18:51:18.710Z,22.50
2022-09-10T18:53:47.335Z,22.60
2022-09-10T18:56:18.397Z,22.50
2022-09-10T18:58:49.976Z,22.50
2022-09-10T19:01:18.823Z,22.60
2022-09-10T19:03:49.935Z,22.50
2022-09-10T19:06:22.966Z,22.60
2022-09-10T19:08:53.579Z,22.50
2022-09-10T19:11:22.346Z,22.50
2022-09-10T19:13:51.627Z,22.50
2022-09-10T19:16:21.580Z,22.50
2022-09-10T19:18:53.490Z,22.50
2022-09-10T19:21:23.467Z,22.50
2022-09-10T19:23:56.221Z,22.50
2022-09-10T19:26:27.308Z,22.50
2022-09-10T19:28:57.511Z,22.50
2022-09-10T19:31:26.665Z,22.60
2022-09-10T19:33:56.540Z,22.60
2022-09-10T19:36:27.474Z,22.60
2022-09-10T19:38:55.852Z,22.60
2022-09-10T19:41:25.507Z,22.60
2022-09-10T19:43:56.236Z,22.70
2022-09-10T19:46:28.214Z,22.70
2022-09-10T19:48:59.285Z,22.70
2022-09-10T19:51:31.091Z,22.80
2022-09-10T19:54:00.347Z,22.80
2022-09-10T19:56:31.082Z,22.80
2022-09-10T19:58:59.647Z,22.80
2022-09-10T20:01:31.133Z,22.80
2022-09-10T20:04:01.659Z,22.80
2022-09-10T20:06:31.030Z,22.80
2022-09-10T20:08:59.720Z,22.80
2022-09-10T20:11:29.933Z,22.90
2022-09-10T20:14:00.603Z,22.80
2022-09-10T20:16:29.458Z,22.80
2022-09-10T20:18:58.422Z,22.80
2022-09-10T20:21:31.186Z,22.80
2022-09-10T20:24:00.495Z,22.80
2022-09-10T20:26:29.857Z,22.80
2022-09-10T20:29:00.679Z,22.80
2022-09-10T20:31:31.205Z,22.80
2022-09-10T20:34:00.728Z,22.80
2022-09-10T20:36:29.630Z,22.80
2022-09-10T20:38:57.582Z,22.80
2022-09-10T20:41:30.255Z,22.80
2022-09-10T20:43:59.637Z,22.80
2022-09-10T20:46:29.730Z,22.80
2022-09-10T20:49:02.717Z,22.80
2022-09-10T20:51:32.799Z,22.80
2022-09-10T20:54:00.854Z,22.80
2022-09-10T20:56:30.314Z,22.80
2022-09-10T20:58:58.618Z,22.80
2022-09-10T21:01:28.337Z,22.80
2022-09-10T21:03:59.708Z,22.80
2022-09-10T21:06:30.080Z,22.80
2022-09-10T21:08:58.783Z,22.80
2022-09-10T21:11:30.454Z,22.80
2022-09-10T21:14:00.027Z,22.80
2022-09-10T21:16:29.603Z,22.80
2022-09-10T21:18:59.513Z,22.80
2022-09-10T21:21:29.098Z,22.80
2022-09-10T21:23:58.213Z,22.80
2022-09-10T21:26:29.661Z,22.80
2022-09-10T21:28:59.741Z,22.90
2022-09-10T21:31:28.763Z,22.90
2022-09-10T21:34:02.443Z,22.90
2022-09-10T21:36:32.348Z,22.90
2022-09-10T21:39:01.887Z,22.90
2022-09-10T21:41:32.970Z,22.90
2022-09-10T21:44:02.973Z,22.80
2022-09-10T21:46:31.221Z,22.90
2022-09-10T21:48:59.400Z,22.90
2022-09-10T21:51:27.731Z,22.90
2022-09-10T21:53:56.921Z,22.80
2022-09-10T21:56:27.553Z,22.80
2022-09-10T21:58:59.190Z,22.80
2022-09-10T22:01:29.607Z,22.80
2022-09-10T22:03:59.566Z,22.90
2022-09-10T22:06:29.570Z,22.90
2022-09-10T22:08:59.143Z,22.90
2022-09-10T22:11:30.416Z,22.90
2022-09-10T22:14:04.141Z,22.90
2022-09-10T22:16:36.260Z,22.80
2022-09-10T22:19:07.743Z,22.90
2022-09-10T22:21:38.282Z,22.90
2022-09-10T22:24:06.769Z,22.90
2022-09-10T22:26:36.599Z,22.80
2022-09-10T22:29:05.879Z,22.80
2022-09-10T22:31:35.579Z,22.80
2022-09-10T22:34:06.332Z,22.80
2022-09-10T22:36:35.972Z,22.80
2022-09-10T22:39:06.879Z,22.80
2022-09-10T22:41:36.347Z,22.80
2022-09-10T22:44:05.968Z,22.80
2022-09-10T22:46:35.238Z,22.80
2022-09-10T22:49:03.302Z,22.80
2022-09-10T22:51:34.167Z,22.80
2022-09-10T22:54:03.230Z,22.80
2022-09-10T22:56:31.227Z,22.80
2022-09-10T22:59:02.040Z,22.80
2022-09-10T23:01:34.373Z,22.80
2022-09-10T23:04:03.577Z,22.80
2022-09-10T23:06:33.524Z,22.80
2022-09-10T23:09:05.385Z,22.80
2022-09-10T23:11:34.011Z,22.70
2022-09-10T23:14:03.378Z,22.70
2022-09-10T23:16:35.273Z,22.80
2022-09-10T23:19:04.733Z,22.70
2022-09-10T23:21:35.899Z,22.70
2022-09-10T23:24:07.263Z,22.70
2022-09-10T23:26:35.504Z,22.70
2022-09-10T23:29:05.263Z,22.70
2022-09-10T23:31:37.389Z,22.70
2022-09-10T23:34:07.552Z,22.70
2022-09-10T23:36:37.205Z,22.70
2022-09-10T23:39:07.795Z,22.70
2022-09-10T23:41:36.022Z,22.70
2022-09-10T23:44:06.218Z,22.60
2022-09-10T23:46:35.596Z,22.60
2022-09-10T23:49:04.139Z,22.60
2022-09-10T23:51:35.064Z,22.60
2022-09-10T23:54:03.137Z,22.60
2022-09-10T23:56:31.122Z,22.60
2022-09-10T23:58:59.459Z,22.60
